createdAt,value
2016-08-16T00:00:41.625Z,0
2016-08-16T00:01:26.783Z,0
2016-08-16T00:02:26.749Z,0
2016-08-16T00:03:26.781Z,0
2016-08-16T00:04:26.804Z,0
2016-08-16T00:06:26.855Z,0
2016-08-16T00:07:26.883Z,0
2016-08-16T00:08:26.922Z,0
2016-08-16T00:09:26.927Z,0
2016-08-16T00:10:26.946Z,0
2016-08-16T00:11:26.988Z,0
2016-08-16T00:12:27.005Z,0
2016-08-16T00:13:27.033Z,0
2016-08-16T00:15:27.132Z,0
2016-08-16T00:16:27.101Z,0
2016-08-16T00:17:27.125Z,0
2016-08-16T00:18:27.154Z,0
2016-08-16T00:19:27.174Z,0
2016-08-16T00:20:27.214Z,0
2016-08-16T00:21:42.159Z,0
2016-08-16T00:22:27.264Z,0
2016-08-16T00:23:27.286Z,0
2016-08-16T00:24:42.926Z,0
2016-08-16T00:25:27.333Z,0
2016-08-16T00:26:27.346Z,0
2016-08-16T00:27:27.375Z,0
2016-08-16T00:28:27.403Z,0
2016-08-16T00:29:27.421Z,0
2016-08-16T00:30:42.383Z,0
2016-08-16T00:32:27.499Z,0
2016-08-16T00:33:27.526Z,0
2016-08-16T00:34:27.549Z,0
2016-08-16T00:35:27.575Z,0
2016-08-16T00:36:28.297Z,0
2016-08-16T00:37:27.619Z,0
2016-08-16T00:38:27.646Z,0
2016-08-16T00:39:27.693Z,0
2016-08-16T00:40:27.690Z,0
2016-08-16T00:41:27.726Z,0
2016-08-16T00:42:27.740Z,0
2016-08-16T00:43:42.708Z,0
2016-08-16T00:44:27.796Z,0
2016-08-16T00:45:42.740Z,0
2016-08-16T00:46:42.764Z,0
2016-08-16T00:47:27.874Z,0
2016-08-16T00:48:27.896Z,0
2016-08-16T00:49:27.928Z,0
2016-08-16T00:51:28.670Z,0
2016-08-16T00:52:42.913Z,0
2016-08-16T00:53:28.021Z,0
2016-08-16T00:54:42.962Z,0
2016-08-16T00:56:28.100Z,0
2016-08-16T00:57:28.114Z,0
2016-08-16T00:58:43.121Z,0
2016-08-16T00:59:43.088Z,0
2016-08-16T01:00:28.199Z,0
2016-08-16T01:01:28.207Z,0
2016-08-16T01:02:43.160Z,0
2016-08-16T01:03:28.270Z,0
2016-08-16T01:04:28.283Z,0
2016-08-16T01:05:43.242Z,0
2016-08-16T01:06:28.331Z,0
2016-08-16T01:07:43.282Z,0
2016-08-16T01:08:43.306Z,0
2016-08-16T01:09:28.402Z,0
2016-08-16T01:10:28.434Z,0
2016-08-16T01:11:28.465Z,0
2016-08-16T01:12:28.487Z,0
2016-08-16T01:13:28.507Z,0
2016-08-16T01:14:28.528Z,0
2016-08-16T01:15:43.531Z,0
2016-08-16T01:16:28.579Z,0
2016-08-16T01:17:58.461Z,0
2016-08-16T01:18:43.607Z,0
2016-08-16T01:19:28.658Z,0
2016-08-16T01:20:29.365Z,0
2016-08-16T01:21:43.630Z,0
2016-08-16T01:22:43.652Z,0
2016-08-16T01:23:28.758Z,0
2016-08-16T01:24:28.776Z,0
2016-08-16T01:25:28.844Z,0
2016-08-16T01:26:28.812Z,0
2016-08-16T01:27:28.851Z,0
2016-08-16T01:28:43.801Z,0
2016-08-16T01:31:28.951Z,0
2016-08-16T01:32:28.978Z,0
2016-08-16T01:33:28.989Z,0
2016-08-16T01:34:43.945Z,0
2016-08-16T01:35:58.890Z,0
2016-08-16T01:36:29.093Z,0
2016-08-16T01:37:29.096Z,0
2016-08-16T01:38:29.119Z,0
2016-08-16T01:39:29.149Z,0
2016-08-16T01:40:29.164Z,0
2016-08-16T01:41:29.198Z,0
2016-08-16T01:42:44.138Z,0
2016-08-16T01:43:29.244Z,0
2016-08-16T01:44:29.285Z,0
2016-08-16T01:45:30.400Z,0
2016-08-16T01:46:30.031Z,0
2016-08-16T01:47:29.342Z,0
2016-08-16T01:48:29.377Z,0
2016-08-16T01:49:44.308Z,0
2016-08-16T01:50:44.333Z,0
2016-08-16T01:51:44.370Z,0
2016-08-16T01:52:29.456Z,0
2016-08-16T01:53:30.789Z,0
2016-08-16T01:54:29.517Z,0
2016-08-16T01:55:29.549Z,0
2016-08-16T01:56:29.563Z,0
2016-08-16T01:57:29.585Z,0
2016-08-16T01:58:29.620Z,0
2016-08-16T01:59:29.625Z,0
2016-08-16T02:00:30.365Z,0
2016-08-16T02:01:29.676Z,0
2016-08-16T02:03:29.737Z,0
2016-08-16T02:04:29.775Z,0
2016-08-16T02:05:44.747Z,0
2016-08-16T02:06:29.805Z,0
2016-08-16T02:07:29.824Z,0
2016-08-16T02:09:29.878Z,0
2016-08-16T02:11:29.925Z,0
2016-08-16T02:12:29.955Z,0
2016-08-16T02:13:29.975Z,0
2016-08-16T02:14:30.005Z,0
2016-08-16T02:15:30.026Z,0
2016-08-16T02:16:30.091Z,0
2016-08-16T02:17:30.076Z,0
2016-08-16T02:18:30.107Z,0
2016-08-16T02:19:30.114Z,0
2016-08-16T02:20:30.196Z,0
2016-08-16T02:21:46.196Z,0
2016-08-16T02:22:45.112Z,0
2016-08-16T02:23:30.217Z,0
2016-08-16T02:24:30.277Z,0
2016-08-16T02:26:30.284Z,0
2016-08-16T02:27:30.311Z,0
2016-08-16T02:28:45.266Z,0
2016-08-16T02:29:30.421Z,0
2016-08-16T02:30:30.384Z,0
2016-08-16T02:31:45.343Z,0
2016-08-16T02:32:31.535Z,0
2016-08-16T02:33:45.391Z,0
2016-08-16T02:34:30.482Z,0
2016-08-16T02:35:30.511Z,0
2016-08-16T02:36:45.465Z,0
2016-08-16T02:37:45.687Z,0
2016-08-16T02:38:30.782Z,0
2016-08-16T02:39:30.605Z,0
2016-08-16T02:40:30.635Z,0
2016-08-16T02:41:30.658Z,0
2016-08-16T02:42:30.681Z,0
2016-08-16T02:43:31.129Z,0
2016-08-16T02:44:30.718Z,0
2016-08-16T02:45:30.751Z,0
2016-08-16T02:46:30.792Z,0
2016-08-16T02:47:30.815Z,0
2016-08-16T02:48:45.750Z,0
2016-08-16T02:49:45.773Z,0
2016-08-16T02:51:30.904Z,0
2016-08-16T02:52:30.927Z,0
2016-08-16T02:53:45.880Z,0
2016-08-16T02:54:46.585Z,0
2016-08-16T02:56:31.009Z,0
2016-08-16T02:57:31.041Z,0
2016-08-16T02:58:31.777Z,0
2016-08-16T02:59:31.083Z,0
2016-08-16T03:00:31.106Z,0
2016-08-16T03:01:31.134Z,0
2016-08-16T03:02:31.879Z,0
2016-08-16T03:03:31.205Z,0
2016-08-16T03:04:31.929Z,0
2016-08-16T03:05:46.152Z,0
2016-08-16T03:06:46.185Z,0
2016-08-16T03:07:31.282Z,0
2016-08-16T03:08:31.303Z,0
2016-08-16T03:09:47.359Z,0
2016-08-16T03:10:31.362Z,0
2016-08-16T03:12:32.112Z,0
2016-08-16T03:13:31.429Z,0
2016-08-16T03:14:31.458Z,0
2016-08-16T03:15:31.480Z,0
2016-08-16T03:16:31.511Z,0
2016-08-16T03:17:46.449Z,0
2016-08-16T03:18:31.558Z,0
2016-08-16T03:19:31.618Z,0
2016-08-16T03:20:32.458Z,0
2016-08-16T03:22:46.562Z,0
2016-08-16T03:23:31.671Z,0
2016-08-16T03:24:46.672Z,0
2016-08-16T03:25:31.729Z,0
2016-08-16T03:26:31.751Z,0
2016-08-16T03:27:31.761Z,0
2016-08-16T03:28:31.802Z,0
2016-08-16T03:29:31.816Z,0
2016-08-16T03:30:32.046Z,0
2016-08-16T03:31:31.919Z,0
2016-08-16T03:32:31.887Z,0
2016-08-16T03:33:31.911Z,0
2016-08-16T03:36:31.987Z,0
2016-08-16T03:37:32.005Z,0
2016-08-16T03:38:46.964Z,0
2016-08-16T03:39:32.066Z,0
2016-08-16T03:40:32.112Z,0
2016-08-16T03:41:47.226Z,0
2016-08-16T03:42:32.136Z,0
2016-08-16T03:43:32.161Z,5
2016-08-16T03:44:32.184Z,5
2016-08-16T03:45:32.212Z,5
2016-08-16T03:46:32.249Z,5
2016-08-16T03:47:32.259Z,5
2016-08-16T03:48:32.277Z,5
2016-08-16T03:49:32.306Z,5
2016-08-16T03:50:47.248Z,5
2016-08-16T03:51:47.287Z,5
2016-08-16T03:52:34.581Z,5
2016-08-16T03:53:47.345Z,5
2016-08-16T03:54:32.431Z,10
2016-08-16T03:55:32.454Z,10
2016-08-16T03:56:47.410Z,10
2016-08-16T03:58:32.719Z,10
2016-08-16T03:59:32.549Z,10
2016-08-16T04:00:32.573Z,15
2016-08-16T04:01:34.517Z,15
2016-08-16T04:02:33.716Z,15
2016-08-16T04:03:32.642Z,15
2016-08-16T04:04:32.699Z,15
2016-08-16T04:05:33.385Z,15
2016-08-16T04:06:33.422Z,15
2016-08-16T04:07:47.666Z,20
2016-08-16T04:08:32.771Z,20
2016-08-16T04:09:32.779Z,20
2016-08-16T04:10:32.813Z,20
2016-08-16T04:11:32.829Z,25
2016-08-16T04:12:47.785Z,25
2016-08-16T04:13:32.890Z,25
2016-08-16T04:14:32.917Z,30
2016-08-16T04:15:32.954Z,35
2016-08-16T04:16:32.961Z,40
2016-08-16T04:17:34.084Z,45
2016-08-16T04:18:33.000Z,45
2016-08-16T04:19:33.037Z,45
2016-08-16T04:20:33.063Z,50
2016-08-16T04:21:33.096Z,55
2016-08-16T04:22:33.102Z,55
2016-08-16T04:23:33.123Z,55
2016-08-16T04:24:33.864Z,55
2016-08-16T04:25:33.900Z,60
2016-08-16T04:26:33.208Z,60
2016-08-16T04:27:33.280Z,60
2016-08-16T04:28:48.191Z,65
2016-08-16T04:29:33.283Z,65
2016-08-16T04:30:33.343Z,65
2016-08-16T04:31:33.333Z,65
2016-08-16T04:32:33.400Z,65
2016-08-16T04:34:33.397Z,75
2016-08-16T04:35:33.423Z,80
2016-08-16T04:36:33.434Z,80
2016-08-16T04:37:33.475Z,85
2016-08-16T04:38:33.496Z,90
2016-08-16T04:39:33.528Z,95
2016-08-16T04:40:33.545Z,105
2016-08-16T04:41:33.560Z,105
2016-08-16T04:42:33.600Z,110
2016-08-16T04:46:03.512Z,130
2016-08-16T04:46:33.692Z,140
2016-08-16T04:47:33.874Z,150
2016-08-16T04:48:33.751Z,130
2016-08-16T04:49:33.780Z,130
2016-08-16T04:50:33.794Z,125
2016-08-16T04:51:33.820Z,130
2016-08-16T04:52:33.826Z,130
2016-08-16T04:53:33.866Z,130
2016-08-16T04:54:33.898Z,155
2016-08-16T04:55:33.920Z,240
2016-08-16T04:56:33.943Z,310
2016-08-16T04:57:48.881Z,200
2016-08-16T04:58:33.993Z,150
2016-08-16T04:59:48.938Z,135
2016-08-16T05:00:48.956Z,125
2016-08-16T05:01:34.057Z,120
2016-08-16T05:02:49.017Z,110
2016-08-16T05:03:34.116Z,110
2016-08-16T05:04:34.148Z,125
2016-08-16T05:05:34.165Z,130
2016-08-16T05:06:34.196Z,145
2016-08-16T05:07:49.137Z,170
2016-08-16T05:09:49.193Z,215
2016-08-16T05:10:34.297Z,290
2016-08-16T05:11:34.336Z,480
2016-08-16T05:12:35.038Z,465
2016-08-16T05:13:34.363Z,810
2016-08-16T05:14:34.410Z,270
2016-08-16T05:15:34.419Z,660
2016-08-16T05:16:34.454Z,550
2016-08-16T05:17:34.483Z,340
2016-08-16T05:18:34.500Z,355
2016-08-16T05:19:34.527Z,820
2016-08-16T05:20:34.550Z,270
2016-08-16T05:22:34.601Z,285
2016-08-16T05:23:34.944Z,655
2016-08-16T05:24:34.660Z,745
2016-08-16T05:25:49.621Z,550
2016-08-16T05:26:34.719Z,355
2016-08-16T05:27:49.668Z,850
2016-08-16T05:28:34.764Z,955
2016-08-16T05:29:34.842Z,1020
2016-08-16T05:30:34.818Z,960
2016-08-16T05:31:49.770Z,890
2016-08-16T05:32:34.921Z,700
2016-08-16T05:33:35.662Z,720
2016-08-16T05:34:34.940Z,500
2016-08-16T05:35:34.970Z,390
2016-08-16T05:36:34.996Z,365
2016-08-16T05:37:49.946Z,640
2016-08-16T05:38:35.103Z,460
2016-08-16T05:39:35.091Z,430
2016-08-16T05:40:50.040Z,295
2016-08-16T05:41:35.144Z,315
2016-08-16T05:42:35.168Z,370
2016-08-16T05:43:35.202Z,265
2016-08-16T05:44:35.236Z,295
2016-08-16T05:45:35.260Z,820
2016-08-16T05:46:35.294Z,345
2016-08-16T05:47:50.234Z,760
2016-08-16T05:48:35.349Z,525
2016-08-16T05:49:50.296Z,700
2016-08-16T05:50:35.394Z,810
2016-08-16T05:51:35.440Z,395
2016-08-16T05:52:35.464Z,620
2016-08-16T05:53:35.493Z,870
2016-08-16T05:54:35.516Z,535
2016-08-16T05:55:35.543Z,295
2016-08-16T05:56:35.582Z,280
2016-08-16T05:57:50.540Z,325
2016-08-16T05:58:50.562Z,1255
2016-08-16T05:59:35.682Z,1150
2016-08-16T06:00:50.617Z,1225
2016-08-16T06:01:35.710Z,560
2016-08-16T06:02:35.742Z,830
2016-08-16T06:03:50.710Z,970
2016-08-16T06:04:35.819Z,1255
2016-08-16T06:05:35.848Z,1185
2016-08-16T06:06:35.876Z,1215
2016-08-16T06:07:35.902Z,1245
2016-08-16T06:08:35.932Z,1190
2016-08-16T06:09:36.669Z,605
2016-08-16T06:10:50.935Z,690
2016-08-16T06:11:36.731Z,1040
2016-08-16T06:12:36.087Z,575
2016-08-16T06:13:36.093Z,665
2016-08-16T06:14:36.131Z,865
2016-08-16T06:15:36.162Z,1180
2016-08-16T06:16:36.203Z,1130
2016-08-16T06:17:36.239Z,1065
2016-08-16T06:18:36.961Z,1160
2016-08-16T06:20:06.144Z,1185
2016-08-16T06:20:51.246Z,1180
2016-08-16T06:21:36.352Z,1175
2016-08-16T06:22:36.393Z,1185
2016-08-16T06:23:36.422Z,950
2016-08-16T06:24:36.455Z,1175
2016-08-16T06:25:36.484Z,1165
2016-08-16T06:26:36.529Z,1145
2016-08-16T06:27:36.556Z,1165
2016-08-16T06:28:37.282Z,1130
2016-08-16T06:29:36.635Z,1120
2016-08-16T06:30:36.661Z,960
2016-08-16T06:31:36.690Z,840
2016-08-16T06:32:36.726Z,915
2016-08-16T06:34:51.719Z,790
2016-08-16T06:35:36.831Z,690
2016-08-16T06:36:36.916Z,545
2016-08-16T06:37:51.846Z,770
2016-08-16T06:38:36.949Z,680
2016-08-16T06:39:36.962Z,645
2016-08-16T06:40:37.004Z,745
2016-08-16T06:41:37.029Z,665
2016-08-16T06:42:37.075Z,740
2016-08-16T06:43:37.105Z,770
2016-08-16T06:44:52.056Z,735
2016-08-16T06:45:52.092Z,685
2016-08-16T06:46:37.898Z,735
2016-08-16T06:47:37.251Z,695
2016-08-16T06:49:37.309Z,670
2016-08-16T06:50:52.269Z,700
2016-08-16T06:51:37.375Z,715
2016-08-16T06:52:37.407Z,740
2016-08-16T06:53:37.446Z,735
2016-08-16T06:54:37.479Z,735
2016-08-16T06:55:52.457Z,740
2016-08-16T06:56:37.543Z,775
2016-08-16T06:57:37.589Z,830
2016-08-16T06:58:37.624Z,925
2016-08-16T06:59:37.656Z,1310
2016-08-16T07:00:37.695Z,1645
2016-08-16T07:01:37.724Z,1545
2016-08-16T07:02:37.759Z,1765
2016-08-16T07:03:37.799Z,1975
2016-08-16T07:04:52.761Z,1675
2016-08-16T07:05:52.796Z,1490
2016-08-16T07:07:08.473Z,1410
2016-08-16T07:07:37.945Z,1420
2016-08-16T07:08:37.969Z,1450
2016-08-16T07:09:38.001Z,1360
2016-08-16T07:10:38.051Z,1325
2016-08-16T07:11:38.075Z,1395
2016-08-16T07:13:38.148Z,1540
2016-08-16T07:14:38.192Z,1520
2016-08-16T07:15:38.223Z,1470
2016-08-16T07:16:38.252Z,1375
2016-08-16T07:17:53.209Z,1335
2016-08-16T07:18:53.248Z,1335
2016-08-16T07:19:39.060Z,1330
2016-08-16T07:20:53.320Z,1380
2016-08-16T07:21:38.424Z,1380
2016-08-16T07:22:53.394Z,1335
2016-08-16T07:23:38.503Z,1305
2016-08-16T07:24:38.536Z,1295
2016-08-16T07:25:38.571Z,1275
2016-08-16T07:26:38.609Z,1265
2016-08-16T07:27:53.581Z,1295
2016-08-16T07:28:38.680Z,1290
2016-08-16T07:29:38.720Z,1290
2016-08-16T07:30:38.749Z,1355
2016-08-16T07:31:38.790Z,1380
2016-08-16T07:32:53.756Z,1290
2016-08-16T07:33:38.859Z,1285
2016-08-16T07:34:38.944Z,1300
2016-08-16T07:36:38.970Z,1235
2016-08-16T07:37:39.059Z,1235
2016-08-16T07:38:53.962Z,1180
2016-08-16T07:39:39.074Z,1185
2016-08-16T07:40:39.104Z,1155
2016-08-16T07:41:39.156Z,1140
2016-08-16T07:42:39.193Z,1150
2016-08-16T07:43:39.246Z,1125
2016-08-16T07:44:39.269Z,1150
2016-08-16T07:45:39.291Z,1135
2016-08-16T07:46:39.334Z,1165
2016-08-16T07:47:39.368Z,1120
2016-08-16T07:48:39.393Z,1085
2016-08-16T07:49:39.431Z,1075
2016-08-16T07:50:54.392Z,1090
2016-08-16T07:51:39.499Z,1110
2016-08-16T07:52:39.530Z,1070
2016-08-16T07:53:39.576Z,1065
2016-08-16T07:55:39.642Z,1115
2016-08-16T07:56:40.011Z,1075
2016-08-16T07:57:39.714Z,1035
2016-08-16T07:58:40.454Z,1055
2016-08-16T07:59:39.781Z,1060
2016-08-16T08:00:39.814Z,1030
2016-08-16T08:01:39.857Z,1025
2016-08-16T08:02:39.895Z,1065
2016-08-16T08:04:40.669Z,1040
2016-08-16T08:05:39.992Z,1090
2016-08-16T08:06:40.029Z,1055
2016-08-16T08:07:40.079Z,1055
2016-08-16T08:08:40.100Z,1075
2016-08-16T08:09:55.067Z,1025
2016-08-16T08:10:40.183Z,300
2016-08-16T08:11:40.216Z,240
2016-08-16T08:12:40.256Z,940
2016-08-16T08:13:40.295Z,985
2016-08-16T08:14:40.325Z,1005
2016-08-16T08:15:40.355Z,995
2016-08-16T08:16:40.633Z,1010
2016-08-16T08:17:41.132Z,975
2016-08-16T08:18:40.465Z,965
2016-08-16T08:19:40.495Z,910
2016-08-16T08:20:55.460Z,480
2016-08-16T08:22:10.421Z,920
2016-08-16T08:22:55.524Z,885
2016-08-16T08:23:55.561Z,250
2016-08-16T08:24:40.674Z,240
2016-08-16T08:25:40.707Z,260
2016-08-16T08:26:40.747Z,860
2016-08-16T08:27:40.777Z,845
2016-08-16T08:28:55.737Z,735
2016-08-16T08:29:40.839Z,875
2016-08-16T08:30:40.891Z,505
2016-08-16T08:31:40.919Z,830
2016-08-16T08:32:40.947Z,835
2016-08-16T08:33:40.987Z,315
2016-08-16T08:34:41.021Z,315
2016-08-16T08:35:41.050Z,335
2016-08-16T08:36:41.104Z,345
2016-08-16T08:37:41.177Z,565
2016-08-16T08:38:41.151Z,530
2016-08-16T08:40:11.048Z,555
2016-08-16T08:40:41.230Z,505
2016-08-16T08:42:41.988Z,565
2016-08-16T08:43:41.329Z,550
2016-08-16T08:44:41.366Z,505
2016-08-16T08:45:41.442Z,535
2016-08-16T08:46:56.359Z,490
2016-08-16T08:47:41.477Z,470
2016-08-16T08:48:56.426Z,495
2016-08-16T08:50:41.576Z,435
2016-08-16T08:51:41.609Z,470
2016-08-16T08:52:41.636Z,525
2016-08-16T08:53:56.601Z,500
2016-08-16T08:54:41.709Z,450
2016-08-16T08:55:41.741Z,450
2016-08-16T08:56:41.774Z,510
2016-08-16T08:57:56.725Z,470
2016-08-16T08:58:41.850Z,375
2016-08-16T08:59:56.799Z,370
2016-08-16T09:00:41.906Z,405
2016-08-16T09:01:41.943Z,360
2016-08-16T09:03:42.014Z,340
2016-08-16T09:04:42.046Z,345
2016-08-16T09:05:42.061Z,365
2016-08-16T09:06:57.040Z,385
2016-08-16T09:07:42.142Z,425
2016-08-16T09:09:42.211Z,350
2016-08-16T09:10:42.248Z,325
2016-08-16T09:11:42.283Z,340
2016-08-16T09:12:42.327Z,530
2016-08-16T09:13:57.268Z,390
2016-08-16T09:14:57.294Z,295
2016-08-16T09:15:42.401Z,295
2016-08-16T09:16:42.441Z,600
2016-08-16T09:17:42.467Z,580
2016-08-16T09:18:42.504Z,360
2016-08-16T09:19:42.540Z,240
2016-08-16T09:20:42.571Z,545
2016-08-16T09:21:42.616Z,540
2016-08-16T09:22:43.328Z,530
2016-08-16T09:23:42.680Z,530
2016-08-16T09:24:42.706Z,520
2016-08-16T09:25:42.736Z,505
2016-08-16T09:26:42.777Z,485
2016-08-16T09:27:42.798Z,475
2016-08-16T09:28:42.839Z,435
2016-08-16T09:30:12.715Z,415
2016-08-16T09:30:57.831Z,405
2016-08-16T09:31:42.936Z,395
2016-08-16T09:32:42.972Z,405
2016-08-16T09:33:42.995Z,285
2016-08-16T09:34:43.030Z,240
2016-08-16T09:35:43.069Z,415
2016-08-16T09:36:43.097Z,340
2016-08-16T09:37:58.804Z,265
2016-08-16T09:38:43.182Z,245
2016-08-16T09:39:43.210Z,235
2016-08-16T09:40:58.152Z,220
2016-08-16T09:41:43.261Z,205
2016-08-16T09:42:43.325Z,195
2016-08-16T09:44:58.305Z,185
2016-08-16T09:45:58.329Z,190
2016-08-16T09:46:43.429Z,195
2016-08-16T09:47:43.522Z,245
2016-08-16T09:48:43.509Z,375
2016-08-16T09:49:58.456Z,365
2016-08-16T09:50:43.570Z,365
2016-08-16T09:51:43.611Z,365
2016-08-16T09:52:43.635Z,370
2016-08-16T09:53:43.657Z,365
2016-08-16T09:54:43.694Z,365
2016-08-16T09:55:43.716Z,365
2016-08-16T09:56:43.760Z,365
2016-08-16T09:57:44.491Z,370
2016-08-16T09:58:43.822Z,375
2016-08-16T09:59:43.857Z,385
2016-08-16T10:00:43.886Z,385
2016-08-16T10:01:43.924Z,370
2016-08-16T10:02:58.880Z,390
2016-08-16T10:03:44.002Z,395
2016-08-16T10:04:44.014Z,390
2016-08-16T10:05:44.049Z,385
2016-08-16T10:06:44.090Z,395
2016-08-16T10:07:44.112Z,375
2016-08-16T10:08:44.203Z,285
2016-08-16T10:09:44.181Z,280
2016-08-16T10:10:44.906Z,340
2016-08-16T10:11:44.249Z,185
2016-08-16T10:13:14.135Z,170
2016-08-16T10:13:59.246Z,305
2016-08-16T10:14:44.334Z,340
2016-08-16T10:15:44.385Z,340
2016-08-16T10:16:59.331Z,345
2016-08-16T10:17:44.445Z,340
2016-08-16T10:18:44.498Z,340
2016-08-16T10:19:44.512Z,340
2016-08-16T10:20:44.551Z,345
2016-08-16T10:21:44.571Z,230
2016-08-16T10:22:44.610Z,190
2016-08-16T10:24:44.683Z,205
2016-08-16T10:26:44.731Z,325
2016-08-16T10:27:44.773Z,330
2016-08-16T10:28:44.822Z,325
2016-08-16T10:29:44.843Z,315
2016-08-16T10:30:44.874Z,310
2016-08-16T10:31:44.914Z,310
2016-08-16T10:32:59.865Z,310
2016-08-16T10:33:59.893Z,305
2016-08-16T10:34:44.989Z,300
2016-08-16T10:35:45.038Z,295
2016-08-16T10:36:45.054Z,295
2016-08-16T10:38:45.132Z,295
2016-08-16T10:39:45.176Z,295
2016-08-16T10:40:45.200Z,300
2016-08-16T10:41:45.221Z,305
2016-08-16T10:42:45.257Z,295
2016-08-16T10:43:45.280Z,185
2016-08-16T10:44:45.379Z,190
2016-08-16T10:45:45.356Z,185
2016-08-16T10:46:45.392Z,185
2016-08-16T10:48:00.345Z,180
2016-08-16T10:49:01.581Z,255
2016-08-16T10:49:45.482Z,265
2016-08-16T10:50:45.521Z,305
2016-08-16T10:53:00.507Z,280
2016-08-16T10:53:45.623Z,275
2016-08-16T10:54:45.653Z,275
2016-08-16T10:55:46.380Z,275
2016-08-16T10:56:46.400Z,270
2016-08-16T10:57:45.724Z,275
2016-08-16T10:58:45.766Z,205
2016-08-16T10:59:45.816Z,160
2016-08-16T11:01:00.752Z,155
2016-08-16T11:01:45.857Z,155
2016-08-16T11:02:45.887Z,280
2016-08-16T11:03:45.925Z,185
2016-08-16T11:05:00.878Z,280
2016-08-16T11:06:00.918Z,270
2016-08-16T11:06:46.011Z,175
2016-08-16T11:08:46.082Z,175
2016-08-16T11:09:46.124Z,195
2016-08-16T11:10:46.145Z,185
2016-08-16T11:11:46.179Z,275
2016-08-16T11:12:46.203Z,270
2016-08-16T11:13:46.287Z,250
2016-08-16T11:14:46.277Z,245
2016-08-16T11:16:01.239Z,240
2016-08-16T11:17:01.258Z,235
2016-08-16T11:17:46.360Z,230
2016-08-16T11:19:01.322Z,225
2016-08-16T11:20:16.278Z,145
2016-08-16T11:20:46.461Z,140
2016-08-16T11:22:01.418Z,135
2016-08-16T11:22:46.516Z,135
2016-08-16T11:23:47.250Z,145
2016-08-16T11:24:46.602Z,195
2016-08-16T11:25:46.615Z,140
2016-08-16T11:27:02.275Z,140
2016-08-16T11:27:46.686Z,140
2016-08-16T11:28:46.705Z,140
2016-08-16T11:29:46.744Z,140
2016-08-16T11:30:46.769Z,205
2016-08-16T11:31:46.796Z,215
2016-08-16T11:32:46.824Z,210
2016-08-16T11:33:46.854Z,215
2016-08-16T11:34:46.904Z,220
2016-08-16T11:36:01.850Z,220
2016-08-16T11:37:01.867Z,225
2016-08-16T11:37:46.982Z,225
2016-08-16T11:38:47.013Z,230
2016-08-16T11:39:47.044Z,230
2016-08-16T11:40:47.087Z,230
2016-08-16T11:41:47.103Z,225
2016-08-16T11:42:47.143Z,225
2016-08-16T11:43:47.161Z,225
2016-08-16T11:45:02.121Z,210
2016-08-16T11:45:47.380Z,155
2016-08-16T11:46:47.250Z,150
2016-08-16T11:47:47.283Z,155
2016-08-16T11:48:47.322Z,190
2016-08-16T11:49:47.408Z,195
2016-08-16T11:50:47.388Z,175
2016-08-16T11:52:02.338Z,195
2016-08-16T11:52:48.135Z,200
2016-08-16T11:55:02.422Z,230
2016-08-16T11:55:47.529Z,240
2016-08-16T11:56:47.564Z,245
2016-08-16T11:57:47.594Z,220
2016-08-16T11:59:47.655Z,195
2016-08-16T12:01:02.615Z,205
2016-08-16T12:01:47.727Z,215
2016-08-16T12:02:47.741Z,265
2016-08-16T12:04:17.631Z,265
2016-08-16T12:04:47.807Z,265
2016-08-16T12:05:47.846Z,260
2016-08-16T12:07:02.790Z,245
2016-08-16T12:08:02.814Z,240
2016-08-16T12:09:02.858Z,225
2016-08-16T12:09:48.273Z,220
2016-08-16T12:10:47.994Z,215
2016-08-16T12:11:48.025Z,210
2016-08-16T12:13:48.818Z,185
2016-08-16T12:14:48.120Z,180
2016-08-16T12:16:48.195Z,180
2016-08-16T12:17:48.202Z,170
2016-08-16T12:18:48.386Z,175
2016-08-16T12:20:48.289Z,185
2016-08-16T12:21:48.326Z,195
2016-08-16T12:22:48.375Z,225
2016-08-16T12:24:48.421Z,240
2016-08-16T12:26:48.491Z,265
2016-08-16T12:27:48.513Z,285
2016-08-16T12:28:48.535Z,295
2016-08-16T12:29:48.562Z,300
2016-08-16T12:30:48.607Z,260
2016-08-16T12:31:48.641Z,280
2016-08-16T12:32:48.655Z,295
2016-08-16T12:33:49.414Z,285
2016-08-16T12:34:48.730Z,305
2016-08-16T12:35:48.753Z,295
2016-08-16T12:36:48.778Z,285
2016-08-16T12:37:48.829Z,255
2016-08-16T12:40:03.800Z,250
2016-08-16T12:40:48.915Z,245
2016-08-16T12:41:48.933Z,250
2016-08-16T12:42:48.977Z,245
2016-08-16T12:43:48.998Z,230
2016-08-16T12:44:49.026Z,230
2016-08-16T12:45:49.053Z,225
2016-08-16T12:46:49.091Z,220
2016-08-16T12:47:49.118Z,215
2016-08-16T12:48:49.151Z,215
2016-08-16T12:50:04.104Z,215
2016-08-16T12:50:50.260Z,210
2016-08-16T12:52:04.165Z,215
2016-08-16T12:52:49.281Z,215
2016-08-16T12:55:04.267Z,215
2016-08-16T12:56:04.286Z,215
2016-08-16T12:57:04.323Z,210
2016-08-16T12:57:49.523Z,210
2016-08-16T12:58:49.472Z,205
2016-08-16T12:59:49.503Z,200
2016-08-16T13:00:49.519Z,195
2016-08-16T13:01:49.550Z,190
2016-08-16T13:02:49.576Z,180
2016-08-16T13:03:49.608Z,170
2016-08-16T13:04:50.334Z,165
2016-08-16T13:06:19.523Z,155
2016-08-16T13:06:49.704Z,155
2016-08-16T13:08:04.658Z,150
2016-08-16T13:08:49.762Z,150
2016-08-16T13:09:49.804Z,150
2016-08-16T13:11:49.888Z,145
2016-08-16T13:12:49.887Z,145
2016-08-16T13:14:04.869Z,145
2016-08-16T13:14:49.947Z,145
2016-08-16T13:15:49.969Z,140
2016-08-16T13:16:49.995Z,135
2016-08-16T13:17:50.027Z,130
2016-08-16T13:18:50.062Z,130
2016-08-16T13:19:50.101Z,125
2016-08-16T13:20:50.118Z,125
2016-08-16T13:21:50.171Z,120
2016-08-16T13:22:50.186Z,120
2016-08-16T13:23:50.230Z,120
2016-08-16T13:25:05.222Z,120
2016-08-16T13:25:50.280Z,120
2016-08-16T13:27:20.153Z,120
2016-08-16T13:27:50.343Z,120
2016-08-16T13:28:50.365Z,125
2016-08-16T13:29:50.421Z,125
2016-08-16T13:30:51.190Z,130
2016-08-16T13:31:50.453Z,135
2016-08-16T13:32:51.188Z,135
2016-08-16T13:34:05.436Z,145
2016-08-16T13:35:05.467Z,145
2016-08-16T13:35:50.564Z,145
2016-08-16T13:36:50.604Z,150
2016-08-16T13:37:50.635Z,155
2016-08-16T13:39:05.587Z,160
2016-08-16T13:39:50.694Z,165
2016-08-16T13:42:05.670Z,170
2016-08-16T13:43:06.416Z,175
2016-08-16T13:43:50.818Z,170
2016-08-16T13:45:50.869Z,165
2016-08-16T13:46:50.904Z,165
2016-08-16T13:47:50.930Z,160
2016-08-16T13:48:50.956Z,160
2016-08-16T13:49:51.002Z,160
2016-08-16T13:50:51.027Z,165
2016-08-16T13:51:51.055Z,170
2016-08-16T13:52:51.089Z,180
2016-08-16T13:53:51.112Z,265
2016-08-16T13:55:51.173Z,190
2016-08-16T13:56:51.252Z,190
2016-08-16T13:57:51.242Z,190
2016-08-16T13:59:21.113Z,180
2016-08-16T14:00:51.306Z,180
2016-08-16T14:01:51.347Z,215
2016-08-16T14:02:51.385Z,180
2016-08-16T14:03:51.406Z,170
2016-08-16T14:05:06.365Z,165
2016-08-16T14:05:51.469Z,170
2016-08-16T14:07:51.529Z,165
2016-08-16T14:08:51.559Z,170
2016-08-16T14:09:51.589Z,215
2016-08-16T14:10:51.618Z,195
2016-08-16T14:11:51.665Z,175
2016-08-16T14:12:51.680Z,165
2016-08-16T14:13:51.709Z,160
2016-08-16T14:15:21.584Z,160
2016-08-16T14:15:51.767Z,170
2016-08-16T14:16:51.807Z,160
2016-08-16T14:17:51.827Z,160
2016-08-16T14:18:51.852Z,155
2016-08-16T14:20:06.813Z,155
2016-08-16T14:20:51.923Z,155
2016-08-16T14:21:51.953Z,150
2016-08-16T14:22:51.970Z,150
2016-08-16T14:23:52.004Z,150
2016-08-16T14:24:52.031Z,155
2016-08-16T14:26:07.005Z,160
2016-08-16T14:27:21.947Z,160
2016-08-16T14:28:07.036Z,160
2016-08-16T14:28:52.139Z,170
2016-08-16T14:30:22.077Z,170
2016-08-16T14:31:07.127Z,155
2016-08-16T14:31:52.234Z,155
2016-08-16T14:32:52.265Z,155
2016-08-16T14:33:52.296Z,150
2016-08-16T14:34:52.378Z,145
2016-08-16T14:35:52.359Z,140
2016-08-16T14:36:52.387Z,140
2016-08-16T14:37:52.422Z,140
2016-08-16T14:39:07.368Z,145
2016-08-16T14:40:07.402Z,140
2016-08-16T14:40:52.507Z,140
2016-08-16T14:41:52.538Z,135
2016-08-16T14:42:52.573Z,130
2016-08-16T14:43:52.592Z,130
2016-08-16T14:44:52.615Z,130
2016-08-16T14:45:52.656Z,130
2016-08-16T14:46:52.771Z,135
2016-08-16T14:47:52.714Z,135
2016-08-16T14:48:52.743Z,130
2016-08-16T14:49:52.765Z,130
2016-08-16T14:50:52.794Z,130
2016-08-16T14:51:52.827Z,125
2016-08-16T14:52:52.850Z,120
2016-08-16T14:53:52.874Z,120